Redwood City, CA (94064)

3:38 PM PST on November 22, 2014 (GMT -0800)
Redwood City Hills | Change Station
CLOSE
Current Station
Personal Weather Station
Location: Redwood City, CA
Elevation: 170 ft
Nearby Weather Stations

Elev 170 ft 37.47 °N, 122.25 °W | Updated 34 seconds ago

Partly Cloudy
Partly Cloudy
65.8 °F
Feels Like 65.8 °F
N
5.8
Wind Variable Wind from NNW
Gusts 5.8 mph

Today
High -- | Low -- °F
--% Chance of Precip.
Yesterday
High -- | Low -- °F
Precip. -- in
6:55 AM 4:54 PM
New Moon, 0% visible
Pressure 30.15 in
Visibility 10.0 miles
Clouds Few 1900 ft
Scattered Clouds 3000 ft
Dew Point 55 °F
Humidity 68%
Rainfall 0.13 in
Snow Depth Not available.
UV 1 out of 12
Pollen .40 out of 12
Air Quality Not available.
Flu Activity Not available.
METAR KSQL 222255Z 28012G17KT 10SM FEW019 SCT030 18/13 A3015

More Conditions Fewer Conditions

Pressure 30.15 in
Visibility 10.0 miles
Clouds Few 1900 ft
Scattered Clouds 3000 ft
Dew Point 55 °F
Humidity 68%
Rainfall 0.13 in
Snow Depth Not available.
UV 1 out of 12
Pollen .40 out of 12
Air Quality Not available.
Flu Activity Not available.
METAR KSQL 222255Z 28012G17KT 10SM FEW019 SCT030 18/13 A3015

More Conditions Fewer Conditions

10-Day Weather Forecast

Almanac

Astronomy

Nov. 22, 2014 Rise Set
Actual Time
Civil Twilight
Nautical Twilight
Astronomical Twilight
Moon
Length of Visible Light
Length of Day
Tomorrow will be .
, % of the Moon is Illuminated

Today's Extremes

State Highs State Lows

Community

WunderPhotos

Upload Photos

1,772,919 photos uploaded!

WunderBlogs® & News

Nearby

Air Quality

  Air Quality AQ Index Pollutant
Not available.

Snow Depth

Station Depth Elevation

Earthquake Activity

City Distance Mag. Time & Date
Minimum magnitude displayed is 2.5.

Coastal Water Temperatures

Place Temperature

Nearby Weather Stations